createdAt,value
2022-12-05T00:00:39.542Z,970.83
2022-12-05T00:01:39.624Z,970.93
2022-12-05T00:02:39.564Z,970.89
2022-12-05T00:03:39.542Z,970.90
2022-12-05T00:04:39.563Z,970.89
2022-12-05T00:05:39.461Z,970.92
2022-12-05T00:06:39.443Z,970.93
2022-12-05T00:07:39.481Z,970.88
2022-12-05T00:08:39.428Z,970.86
2022-12-05T00:09:39.392Z,970.93
2022-12-05T00:10:39.373Z,970.88
2022-12-05T00:11:39.363Z,970.99
2022-12-05T00:12:39.338Z,971.00
2022-12-05T00:13:39.324Z,971.00
2022-12-05T00:14:39.306Z,971.02
2022-12-05T00:15:39.294Z,971.08
2022-12-05T00:16:39.455Z,971.08
2022-12-05T00:17:39.258Z,971.07
2022-12-05T00:18:39.238Z,971.10
2022-12-05T00:19:39.224Z,971.06
2022-12-05T00:20:39.203Z,971.06
2022-12-05T00:21:39.189Z,971.06
2022-12-05T00:22:39.172Z,970.95
2022-12-05T00:23:39.155Z,970.91
2022-12-05T00:24:39.158Z,970.91
2022-12-05T00:25:39.121Z,970.90
2022-12-05T00:26:39.104Z,970.88
2022-12-05T00:27:39.106Z,970.89
2022-12-05T00:28:39.068Z,970.88
2022-12-05T00:29:39.056Z,970.84
2022-12-05T00:30:39.035Z,970.84
2022-12-05T00:31:39.208Z,970.87
2022-12-05T00:32:39.000Z,970.85
2022-12-05T00:33:38.987Z,970.84
2022-12-05T00:34:38.966Z,970.83
2022-12-05T00:35:38.953Z,970.80
2022-12-05T00:36:38.944Z,970.75
2022-12-05T00:37:38.919Z,970.76
2022-12-05T00:38:38.899Z,970.77
2022-12-05T00:39:38.885Z,970.89
2022-12-05T00:40:38.894Z,970.90
2022-12-05T00:41:38.853Z,970.88
2022-12-05T00:42:38.833Z,970.99
2022-12-05T00:43:38.817Z,971.05
2022-12-05T00:44:38.797Z,971.18
2022-12-05T00:45:38.846Z,971.22
2022-12-05T00:46:38.820Z,971.28
2022-12-05T00:47:38.749Z,971.32
2022-12-05T00:48:38.730Z,971.32
2022-12-05T00:49:38.718Z,971.33
2022-12-05T00:50:38.698Z,971.39
2022-12-05T00:51:38.682Z,971.42
2022-12-05T00:52:38.674Z,971.44
2022-12-05T00:53:38.651Z,971.42
2022-12-05T00:54:38.630Z,971.52
2022-12-05T00:55:38.615Z,971.55
2022-12-05T00:56:38.619Z,971.47
2022-12-05T00:57:38.582Z,971.51
2022-12-05T00:58:38.561Z,971.49
2022-12-05T00:59:38.556Z,971.45
2022-12-05T01:00:38.527Z,971.41
2022-12-05T01:01:38.633Z,971.36
2022-12-05T01:02:38.551Z,971.37
2022-12-05T01:03:38.553Z,971.33
2022-12-05T01:04:38.460Z,971.36
2022-12-05T01:05:38.448Z,971.35
2022-12-05T01:06:38.432Z,971.36
2022-12-05T01:07:38.446Z,971.40
2022-12-05T01:08:38.394Z,971.42
2022-12-05T01:09:38.375Z,971.44
2022-12-05T01:10:38.362Z,971.50
2022-12-05T01:11:41.409Z,971.47
2022-12-05T01:12:38.351Z,971.44
2022-12-05T01:13:38.306Z,971.46
2022-12-05T01:14:38.395Z,971.48
2022-12-05T01:15:38.273Z,971.53
2022-12-05T01:16:38.348Z,971.55
2022-12-05T01:17:38.240Z,971.58
2022-12-05T01:18:38.226Z,971.58
2022-12-05T01:19:38.210Z,971.56
2022-12-05T01:20:38.208Z,971.54
2022-12-05T01:21:38.173Z,971.58
2022-12-05T01:22:38.159Z,971.58
2022-12-05T01:23:38.240Z,971.61
2022-12-05T01:24:38.127Z,971.57
2022-12-05T01:25:38.106Z,971.58
2022-12-05T01:26:38.091Z,971.52
2022-12-05T01:27:38.072Z,971.52
2022-12-05T01:28:38.126Z,971.48
2022-12-05T01:29:38.039Z,971.51
2022-12-05T01:30:38.025Z,971.45
2022-12-05T01:31:38.074Z,971.47
2022-12-05T01:32:37.992Z,971.48
2022-12-05T01:33:37.973Z,971.40
2022-12-05T01:34:37.958Z,971.43
2022-12-05T01:35:37.938Z,971.43
2022-12-05T01:36:37.924Z,971.43
2022-12-05T01:37:37.905Z,971.48
2022-12-05T01:38:37.891Z,971.50
2022-12-05T01:39:37.871Z,971.46
2022-12-05T01:40:37.857Z,971.52
2022-12-05T01:41:37.841Z,971.48
2022-12-05T01:42:37.825Z,971.47
2022-12-05T01:43:37.804Z,971.57
2022-12-05T01:44:37.813Z,971.58
2022-12-05T01:45:37.801Z,971.63
2022-12-05T01:46:37.758Z,971.70
2022-12-05T01:47:37.737Z,971.71
2022-12-05T01:48:37.725Z,971.76
2022-12-05T01:49:37.715Z,971.73
2022-12-05T01:50:37.691Z,971.76
2022-12-05T01:51:37.683Z,971.76
2022-12-05T01:52:37.659Z,971.74
2022-12-05T01:53:37.643Z,971.74
2022-12-05T01:54:37.626Z,971.75
2022-12-05T01:55:37.603Z,971.75
2022-12-05T01:56:37.590Z,971.79
2022-12-05T01:57:37.571Z,971.78
2022-12-05T01:58:37.561Z,971.79
2022-12-05T01:59:37.537Z,971.76
2022-12-05T02:00:37.548Z,971.71
2022-12-05T02:01:37.566Z,971.70
2022-12-05T02:02:37.533Z,971.72
2022-12-05T02:03:37.470Z,971.71
2022-12-05T02:04:37.459Z,971.78
2022-12-05T02:05:37.437Z,971.81
2022-12-05T02:06:37.427Z,971.78
2022-12-05T02:07:37.452Z,971.85
2022-12-05T02:08:37.390Z,971.90
2022-12-05T02:09:37.372Z,971.90
2022-12-05T02:10:37.361Z,971.88
2022-12-05T02:11:37.338Z,971.84
2022-12-05T02:12:39.052Z,971.86
2022-12-05T02:13:37.315Z,971.86
2022-12-05T02:14:37.291Z,971.87
2022-12-05T02:15:37.272Z,971.83
2022-12-05T02:16:37.350Z,971.86
2022-12-05T02:17:37.240Z,971.87
2022-12-05T02:18:37.225Z,971.83
2022-12-05T02:19:37.205Z,971.85
2022-12-05T02:20:37.196Z,971.81
2022-12-05T02:21:37.171Z,971.77
2022-12-05T02:22:37.157Z,971.77
2022-12-05T02:23:37.137Z,971.74
2022-12-05T02:24:37.126Z,971.76
2022-12-05T02:25:37.106Z,971.76
2022-12-05T02:26:37.092Z,971.74
2022-12-05T02:27:37.076Z,971.77
2022-12-05T02:28:37.060Z,971.76
2022-12-05T02:29:37.039Z,971.73
2022-12-05T02:30:37.025Z,971.80
2022-12-05T02:31:37.141Z,971.81
2022-12-05T02:32:37.064Z,971.84
2022-12-05T02:33:36.972Z,971.87
2022-12-05T02:34:36.959Z,971.86
2022-12-05T02:35:36.938Z,971.84
2022-12-05T02:36:36.925Z,971.84
2022-12-05T02:37:36.906Z,971.84
2022-12-05T02:38:36.892Z,971.82
2022-12-05T02:39:36.872Z,971.79
2022-12-05T02:40:36.859Z,971.82
2022-12-05T02:41:36.840Z,971.82
2022-12-05T02:42:36.826Z,971.78
2022-12-05T02:43:36.808Z,971.74
2022-12-05T02:44:36.793Z,971.76
2022-12-05T02:45:36.842Z,971.70
2022-12-05T02:46:36.759Z,971.73
2022-12-05T02:47:36.739Z,971.69
2022-12-05T02:48:36.750Z,971.69
2022-12-05T02:49:36.706Z,971.65
2022-12-05T02:50:36.696Z,971.62
2022-12-05T02:51:36.672Z,971.59
2022-12-05T02:52:36.660Z,971.60
2022-12-05T02:53:36.641Z,971.55
2022-12-05T02:54:36.626Z,971.53
2022-12-05T02:55:36.606Z,971.53
2022-12-05T02:56:36.598Z,971.57
2022-12-05T02:57:36.573Z,971.54
2022-12-05T02:58:36.561Z,971.57
2022-12-05T02:59:36.540Z,971.53
2022-12-05T03:00:36.526Z,971.52
2022-12-05T03:01:36.614Z,971.51
2022-12-05T03:02:36.493Z,971.58
2022-12-05T03:03:36.473Z,971.58
2022-12-05T03:04:36.548Z,971.53
2022-12-05T03:05:36.443Z,971.53
2022-12-05T03:06:36.427Z,971.56
2022-12-05T03:07:36.457Z,971.58
2022-12-05T03:08:36.394Z,971.57
2022-12-05T03:09:36.374Z,971.56
2022-12-05T03:10:36.360Z,971.62
2022-12-05T03:11:36.341Z,971.67
2022-12-05T03:12:36.328Z,971.68
2022-12-05T03:13:36.307Z,971.65
2022-12-05T03:14:36.294Z,971.65
2022-12-05T03:15:36.274Z,971.63
2022-12-05T03:16:36.285Z,971.61
2022-12-05T03:17:36.241Z,971.61
2022-12-05T03:18:36.228Z,971.65
2022-12-05T03:19:36.210Z,971.68
2022-12-05T03:20:36.217Z,971.68
2022-12-05T03:21:36.174Z,971.70
2022-12-05T03:22:36.162Z,971.69
2022-12-05T03:23:36.141Z,971.65
2022-12-05T03:24:36.128Z,971.70
2022-12-05T03:25:36.107Z,971.66
2022-12-05T03:26:36.094Z,971.63
2022-12-05T03:27:36.074Z,971.60
2022-12-05T03:28:36.062Z,971.58
2022-12-05T03:29:36.041Z,971.60
2022-12-05T03:30:36.113Z,971.62
2022-12-05T03:31:36.008Z,971.67
2022-12-05T03:32:35.996Z,971.70
2022-12-05T03:33:35.978Z,971.64
2022-12-05T03:34:35.964Z,971.65
2022-12-05T03:35:35.942Z,971.67
2022-12-05T03:36:35.953Z,971.65
2022-12-05T03:37:35.910Z,971.69
2022-12-05T03:38:35.898Z,971.70
2022-12-05T03:39:35.878Z,971.69
2022-12-05T03:40:35.864Z,971.68
2022-12-05T03:41:35.847Z,971.72
2022-12-05T03:42:35.829Z,971.67
2022-12-05T03:43:35.809Z,971.69
2022-12-05T03:44:35.796Z,971.67
2022-12-05T03:45:35.883Z,971.65
2022-12-05T03:46:35.949Z,971.63
2022-12-05T03:47:35.743Z,971.65
2022-12-05T03:48:35.729Z,971.73
2022-12-05T03:49:35.710Z,971.76
2022-12-05T03:50:35.699Z,971.77
2022-12-05T03:51:35.677Z,971.83
2022-12-05T03:52:51.268Z,971.82
2022-12-05T03:53:35.645Z,971.85
2022-12-05T03:54:35.633Z,971.84
2022-12-05T03:55:35.610Z,971.86
2022-12-05T03:56:35.598Z,971.87
2022-12-05T03:57:35.580Z,971.91
2022-12-05T03:58:35.571Z,971.95
2022-12-05T03:59:35.545Z,971.98
2022-12-05T04:00:35.531Z,971.98
2022-12-05T04:01:35.575Z,971.98
2022-12-05T04:02:35.500Z,972.01
2022-12-05T04:03:35.529Z,971.95
2022-12-05T04:04:35.466Z,971.90
2022-12-05T04:05:35.450Z,971.92
2022-12-05T04:06:35.432Z,971.90
2022-12-05T04:07:35.484Z,971.94
2022-12-05T04:08:35.422Z,971.95
2022-12-05T04:09:35.383Z,971.97
2022-12-05T04:10:35.366Z,971.99
2022-12-05T04:11:35.348Z,972.00
2022-12-05T04:12:35.337Z,972.02
2022-12-05T04:13:35.315Z,972.03
2022-12-05T04:14:35.301Z,972.01
2022-12-05T04:15:35.306Z,972.06
2022-12-05T04:16:35.266Z,972.02
2022-12-05T04:17:35.249Z,972.03
2022-12-05T04:18:35.234Z,972.08
2022-12-05T04:19:35.215Z,972.08
2022-12-05T04:20:35.200Z,972.14
2022-12-05T04:21:35.182Z,972.17
2022-12-05T04:22:35.170Z,972.20
2022-12-05T04:23:35.167Z,972.21
2022-12-05T04:24:35.156Z,972.23
2022-12-05T04:25:35.114Z,972.25
2022-12-05T04:26:35.101Z,972.27
2022-12-05T04:27:35.082Z,972.33
2022-12-05T04:28:35.069Z,972.38
2022-12-05T04:29:35.050Z,972.37
2022-12-05T04:30:35.036Z,972.36
2022-12-05T04:31:35.072Z,972.36
2022-12-05T04:32:35.004Z,972.39
2022-12-05T04:33:34.983Z,972.36
2022-12-05T04:34:34.969Z,972.40
2022-12-05T04:35:34.948Z,972.36
2022-12-05T04:36:34.936Z,972.35
2022-12-05T04:37:35.020Z,972.33
2022-12-05T04:38:34.903Z,972.37
2022-12-05T04:39:34.885Z,972.39
2022-12-05T04:40:34.892Z,972.44
2022-12-05T04:41:34.850Z,972.39
2022-12-05T04:42:34.854Z,972.38
2022-12-05T04:43:34.820Z,972.40
2022-12-05T04:44:34.804Z,972.39
2022-12-05T04:45:34.785Z,972.37
2022-12-05T04:46:34.867Z,972.39
2022-12-05T04:47:34.752Z,972.36
2022-12-05T04:48:34.736Z,972.38
2022-12-05T04:49:34.718Z,972.37
2022-12-05T04:50:34.705Z,972.36
2022-12-05T04:51:34.685Z,972.34
2022-12-05T04:52:34.671Z,972.36
2022-12-05T04:53:34.651Z,972.36
2022-12-05T04:54:34.643Z,972.32
2022-12-05T04:55:34.620Z,972.37
2022-12-05T04:56:34.629Z,972.34
2022-12-05T04:57:34.585Z,972.42
2022-12-05T04:58:34.572Z,972.35
2022-12-05T04:59:34.552Z,972.33
2022-12-05T05:00:34.538Z,972.34
2022-12-05T05:01:34.592Z,972.31
2022-12-05T05:02:34.574Z,972.26
2022-12-05T05:03:34.486Z,972.20
2022-12-05T05:04:34.472Z,972.20
2022-12-05T05:05:34.454Z,972.21
2022-12-05T05:06:34.441Z,972.26
2022-12-05T05:07:34.461Z,972.25
2022-12-05T05:08:34.406Z,972.23
2022-12-05T05:09:34.388Z,972.17
2022-12-05T05:10:34.372Z,972.18
2022-12-05T05:11:34.353Z,972.21
2022-12-05T05:12:34.361Z,972.26
2022-12-05T05:13:34.330Z,972.27
2022-12-05T05:14:34.308Z,972.32
2022-12-05T05:15:34.287Z,972.27
2022-12-05T05:16:34.387Z,972.26
2022-12-05T05:17:34.253Z,972.27
2022-12-05T05:18:34.244Z,972.30
2022-12-05T05:19:34.220Z,972.30
2022-12-05T05:20:34.207Z,972.26
2022-12-05T05:21:34.187Z,972.30
2022-12-05T05:22:34.174Z,972.27
2022-12-05T05:23:34.257Z,972.26
2022-12-05T05:24:34.137Z,972.26
2022-12-05T05:25:34.128Z,972.28
2022-12-05T05:26:34.111Z,972.22
2022-12-05T05:27:34.101Z,972.20
2022-12-05T05:28:34.096Z,972.18
2022-12-05T05:29:34.057Z,972.19
2022-12-05T05:30:34.038Z,972.20
2022-12-05T05:31:34.080Z,972.20
2022-12-05T05:32:34.005Z,972.21
2022-12-05T05:33:33.991Z,972.21
2022-12-05T05:34:33.972Z,972.25
2022-12-05T05:35:33.957Z,972.24
2022-12-05T05:36:33.938Z,972.26
2022-12-05T05:37:33.926Z,972.21
2022-12-05T05:38:33.906Z,972.06
2022-12-05T05:39:33.892Z,972.10
2022-12-05T05:40:33.872Z,972.13
2022-12-05T05:41:33.859Z,972.18
2022-12-05T05:42:33.939Z,972.08
2022-12-05T05:43:33.826Z,972.09
2022-12-05T05:44:33.828Z,972.13
2022-12-05T05:45:33.795Z,972.28
2022-12-05T05:46:33.855Z,972.39
2022-12-05T05:47:33.761Z,972.45
2022-12-05T05:48:33.742Z,972.54
2022-12-05T05:49:33.725Z,972.66
2022-12-05T05:50:33.706Z,972.69
2022-12-05T05:51:33.693Z,972.70
2022-12-05T05:52:33.672Z,972.68
2022-12-05T05:53:33.658Z,972.72
2022-12-05T05:54:33.641Z,972.75
2022-12-05T05:55:33.625Z,972.69
2022-12-05T05:56:33.605Z,972.76
2022-12-05T05:57:33.593Z,972.80
2022-12-05T05:58:33.589Z,972.84
2022-12-05T05:59:33.561Z,972.85
2022-12-05T06:00:33.561Z,972.84
2022-12-05T06:01:33.527Z,972.85
2022-12-05T06:02:33.684Z,972.76
2022-12-05T06:03:33.766Z,972.69
2022-12-05T06:04:33.474Z,972.67
2022-12-05T06:05:33.462Z,972.70
2022-12-05T06:06:33.442Z,972.63
2022-12-05T06:07:33.538Z,972.63
2022-12-05T06:08:33.408Z,972.64
2022-12-05T06:09:33.395Z,972.58
2022-12-05T06:10:33.374Z,972.56
2022-12-05T06:11:33.360Z,972.51
2022-12-05T06:12:33.343Z,972.51
2022-12-05T06:13:33.329Z,972.48
2022-12-05T06:14:33.309Z,972.44
2022-12-05T06:15:33.298Z,972.41
2022-12-05T06:16:33.382Z,972.40
2022-12-05T06:17:33.265Z,972.34
2022-12-05T06:18:33.259Z,972.42
2022-12-05T06:19:33.231Z,972.47
2022-12-05T06:20:33.210Z,972.51
2022-12-05T06:21:33.196Z,972.55
2022-12-05T06:22:33.181Z,972.63
2022-12-05T06:23:33.163Z,972.60
2022-12-05T06:24:33.144Z,972.57
2022-12-05T06:25:33.132Z,972.59
2022-12-05T06:26:33.118Z,972.60
2022-12-05T06:27:33.102Z,972.58
2022-12-05T06:28:33.182Z,972.55
2022-12-05T06:29:34.213Z,972.54
2022-12-05T06:30:33.053Z,972.51
2022-12-05T06:31:33.073Z,972.51
2022-12-05T06:32:33.035Z,972.45
2022-12-05T06:33:33.000Z,972.45
2022-12-05T06:34:32.979Z,972.46
2022-12-05T06:35:32.966Z,972.55
2022-12-05T06:36:32.944Z,972.60
2022-12-05T06:37:32.932Z,972.65
2022-12-05T06:38:32.913Z,972.70
2022-12-05T06:39:32.901Z,972.81
2022-12-05T06:40:32.881Z,972.92
2022-12-05T06:41:32.867Z,972.96
2022-12-05T06:42:32.848Z,973.05
2022-12-05T06:43:32.833Z,973.12
2022-12-05T06:44:32.862Z,973.17
2022-12-05T06:45:32.856Z,973.21
2022-12-05T06:46:32.780Z,973.27
2022-12-05T06:47:32.768Z,973.34
2022-12-05T06:48:32.771Z,973.34
2022-12-05T06:49:37.683Z,973.35
2022-12-05T06:50:32.716Z,973.43
2022-12-05T06:51:32.751Z,973.43
2022-12-05T06:52:32.682Z,973.49
2022-12-05T06:53:32.667Z,973.49
2022-12-05T06:54:32.649Z,973.51
2022-12-05T06:55:32.636Z,973.54
2022-12-05T06:56:32.620Z,973.57
2022-12-05T06:57:32.602Z,973.51
2022-12-05T06:58:32.584Z,973.49
2022-12-05T06:59:32.568Z,973.51
2022-12-05T07:00:32.549Z,973.56
2022-12-05T07:01:32.585Z,973.54
2022-12-05T07:02:32.671Z,973.53
2022-12-05T07:03:32.503Z,973.50
2022-12-05T07:04:32.507Z,973.50
2022-12-05T07:05:32.471Z,973.46
2022-12-05T07:06:32.452Z,973.52
2022-12-05T07:07:32.509Z,973.47
2022-12-05T07:08:32.417Z,973.52
2022-12-05T07:09:32.405Z,973.51
2022-12-05T07:10:32.385Z,973.55
2022-12-05T07:11:32.371Z,973.49
2022-12-05T07:12:32.354Z,973.49
2022-12-05T07:13:32.341Z,973.50
2022-12-05T07:14:46.944Z,973.46
2022-12-05T07:15:32.307Z,973.47
2022-12-05T07:16:32.308Z,973.45
2022-12-05T07:17:32.274Z,973.52
2022-12-05T07:18:32.257Z,973.57
2022-12-05T07:19:32.257Z,973.61
2022-12-05T07:21:03.571Z,973.65
2022-12-05T07:21:32.216Z,973.63
2022-12-05T07:22:32.188Z,973.62
2022-12-05T07:23:32.175Z,973.59
2022-12-05T07:24:32.155Z,973.60
2022-12-05T07:25:32.141Z,973.60
2022-12-05T07:26:32.123Z,973.58
2022-12-05T07:27:32.110Z,973.55
2022-12-05T07:28:32.096Z,973.50
2022-12-05T07:29:32.077Z,973.56
2022-12-05T07:30:32.057Z,973.62
2022-12-05T07:31:32.131Z,973.66
2022-12-05T07:32:32.025Z,973.64
2022-12-05T07:33:32.011Z,973.74
2022-12-05T07:34:31.996Z,973.70
2022-12-05T07:35:31.979Z,973.77
2022-12-05T07:36:31.982Z,973.80
2022-12-05T07:37:31.947Z,973.75
2022-12-05T07:38:31.926Z,973.80
2022-12-05T07:39:31.913Z,973.78
2022-12-05T07:40:31.895Z,973.74
2022-12-05T07:41:31.882Z,973.72
2022-12-05T07:42:31.864Z,973.68
2022-12-05T07:43:31.870Z,973.70
2022-12-05T07:44:31.828Z,973.67
2022-12-05T07:45:31.903Z,973.70
2022-12-05T07:46:31.797Z,973.71
2022-12-05T07:47:31.847Z,973.75
2022-12-05T07:48:31.765Z,973.73
2022-12-05T07:49:31.751Z,973.76
2022-12-05T07:50:31.733Z,973.76
2022-12-05T07:51:31.719Z,973.73
2022-12-05T07:52:31.723Z,973.77
2022-12-05T07:53:31.684Z,973.79
2022-12-05T07:54:31.667Z,973.79
2022-12-05T07:55:31.651Z,973.81
2022-12-05T07:56:31.637Z,973.86
2022-12-05T07:57:31.634Z,973.91
2022-12-05T07:58:31.603Z,973.97
2022-12-05T07:59:31.587Z,973.98
2022-12-05T08:00:31.567Z,974.06
2022-12-05T08:01:31.633Z,974.04
2022-12-05T08:02:31.613Z,974.04
2022-12-05T08:03:31.521Z,974.11
2022-12-05T08:04:31.502Z,974.02
2022-12-05T08:05:31.506Z,974.02
2022-12-05T08:06:31.469Z,974.06
2022-12-05T08:07:31.486Z,974.09
2022-12-05T08:08:31.460Z,974.09
2022-12-05T08:09:31.424Z,974.14
2022-12-05T08:10:31.483Z,974.14
2022-12-05T08:11:31.419Z,974.14
2022-12-05T08:12:31.372Z,974.11
2022-12-05T08:13:31.411Z,974.12
2022-12-05T08:14:31.338Z,974.11
2022-12-05T08:15:31.376Z,974.16
2022-12-05T08:16:31.377Z,974.06
2022-12-05T08:17:31.296Z,974.03
2022-12-05T08:18:31.274Z,974.03
2022-12-05T08:19:31.259Z,974.03
2022-12-05T08:20:31.241Z,974.03
2022-12-05T08:21:31.267Z,973.99
2022-12-05T08:22:31.210Z,973.95
2022-12-05T08:23:31.234Z,973.88
2022-12-05T08:24:31.215Z,973.92
2022-12-05T08:25:31.169Z,973.95
2022-12-05T08:26:31.143Z,974.00
2022-12-05T08:27:31.128Z,974.04
2022-12-05T08:28:31.115Z,974.07
2022-12-05T08:29:31.107Z,974.14
2022-12-05T08:30:31.113Z,974.17
2022-12-05T08:31:31.166Z,974.20
2022-12-05T08:32:31.046Z,974.24
2022-12-05T08:33:31.031Z,974.20
2022-12-05T08:34:31.013Z,974.26
2022-12-05T08:35:31.002Z,974.26
2022-12-05T08:36:30.980Z,974.24
2022-12-05T08:37:30.968Z,974.18
2022-12-05T08:38:30.947Z,974.22
2022-12-05T08:39:35.366Z,974.21
2022-12-05T08:40:30.938Z,974.19
2022-12-05T08:41:30.901Z,974.18
2022-12-05T08:42:30.886Z,974.18
2022-12-05T08:43:30.869Z,974.22
2022-12-05T08:44:30.849Z,974.20
2022-12-05T08:45:30.838Z,974.19
2022-12-05T08:46:30.914Z,974.23
2022-12-05T08:47:32.429Z,974.24
2022-12-05T08:48:30.785Z,974.27
2022-12-05T08:49:30.773Z,974.28
2022-12-05T08:50:30.753Z,974.37
2022-12-05T08:51:30.740Z,974.40
2022-12-05T08:52:30.721Z,974.41
2022-12-05T08:53:30.707Z,974.43
2022-12-05T08:54:30.688Z,974.39
2022-12-05T08:55:30.675Z,974.42
2022-12-05T08:56:30.678Z,974.40
2022-12-05T08:57:30.643Z,974.39
2022-12-05T08:58:30.625Z,974.43
2022-12-05T08:59:30.619Z,974.46
2022-12-05T09:00:30.590Z,974.45
2022-12-05T09:01:30.668Z,974.45
2022-12-05T09:02:30.644Z,974.50
2022-12-05T09:03:30.547Z,974.50
2022-12-05T09:04:30.527Z,974.53
2022-12-05T09:05:30.794Z,974.52
2022-12-05T09:06:30.540Z,974.53
2022-12-05T09:07:30.541Z,974.52
2022-12-05T09:08:30.471Z,974.54
2022-12-05T09:09:30.463Z,974.50
2022-12-05T09:10:30.435Z,974.52
2022-12-05T09:11:30.417Z,974.51
2022-12-05T09:12:30.420Z,974.46
2022-12-05T09:13:30.385Z,974.46
2022-12-05T09:14:30.368Z,974.46
2022-12-05T09:15:30.396Z,974.49
2022-12-05T09:16:36.454Z,974.44
2022-12-05T09:17:30.320Z,974.40
2022-12-05T09:18:30.301Z,974.37
2022-12-05T09:19:30.287Z,974.42
2022-12-05T09:20:30.269Z,974.35
2022-12-05T09:21:30.255Z,974.37
2022-12-05T09:22:30.244Z,974.43
2022-12-05T09:23:30.223Z,974.46
2022-12-05T09:24:30.204Z,974.51
2022-12-05T09:25:30.191Z,974.52
2022-12-05T09:26:30.171Z,974.54
2022-12-05T09:27:30.158Z,974.55
2022-12-05T09:28:30.159Z,974.52
2022-12-05T09:29:30.128Z,974.51
2022-12-05T09:30:30.108Z,974.51
2022-12-05T09:31:30.129Z,974.49
2022-12-05T09:32:30.078Z,974.50
2022-12-05T09:33:30.063Z,974.48
2022-12-05T09:34:30.050Z,974.51
2022-12-05T09:35:30.032Z,974.53
2022-12-05T09:36:30.111Z,974.54
2022-12-05T09:37:39.364Z,974.56
2022-12-05T09:38:29.987Z,974.58
2022-12-05T09:39:29.983Z,974.62
2022-12-05T09:40:29.951Z,974.62
2022-12-05T09:41:29.934Z,974.60
2022-12-05T09:42:29.920Z,974.61
2022-12-05T09:43:29.901Z,974.61
2022-12-05T09:44:29.911Z,974.62
2022-12-05T09:45:29.870Z,974.66
2022-12-05T09:46:35.366Z,974.67
2022-12-05T09:47:29.838Z,974.65
2022-12-05T09:48:29.825Z,974.69
2022-12-05T09:49:29.819Z,974.72
2022-12-05T09:50:29.796Z,974.71
2022-12-05T09:51:29.773Z,974.70
2022-12-05T09:52:29.761Z,974.73
2022-12-05T09:53:29.744Z,974.78
2022-12-05T09:54:29.732Z,974.80
2022-12-05T09:55:29.710Z,974.77
2022-12-05T09:56:29.699Z,974.79
2022-12-05T09:57:33.728Z,974.78
2022-12-05T09:58:29.667Z,974.81
2022-12-05T09:59:29.646Z,974.76
2022-12-05T10:00:29.653Z,974.68
2022-12-05T10:01:29.827Z,974.67
2022-12-05T10:02:29.613Z,974.65
2022-12-05T10:03:29.587Z,974.66
2022-12-05T10:04:29.687Z,974.62
2022-12-05T10:05:29.628Z,974.64
2022-12-05T10:06:29.540Z,974.66
2022-12-05T10:07:29.608Z,974.68
2022-12-05T10:08:29.512Z,974.61
2022-12-05T10:09:29.490Z,974.63
2022-12-05T10:10:29.477Z,974.62
2022-12-05T10:11:29.469Z,974.59
2022-12-05T10:12:29.446Z,974.59
2022-12-05T10:13:29.429Z,974.58
2022-12-05T10:14:29.419Z,974.53
2022-12-05T10:15:29.394Z,974.57
2022-12-05T10:16:29.503Z,974.56
2022-12-05T10:17:29.364Z,974.54
2022-12-05T10:18:29.367Z,974.50
2022-12-05T10:19:29.333Z,974.49
2022-12-05T10:20:29.319Z,974.48
2022-12-05T10:21:29.301Z,974.47
2022-12-05T10:22:29.289Z,974.43
2022-12-05T10:23:56.093Z,974.44
2022-12-05T10:24:29.257Z,974.43
2022-12-05T10:25:29.240Z,974.44
2022-12-05T10:26:29.225Z,974.46
2022-12-05T10:27:29.212Z,974.37
2022-12-05T10:28:29.194Z,974.42
2022-12-05T10:29:29.190Z,974.44
2022-12-05T10:30:29.165Z,974.47
2022-12-05T10:31:29.245Z,974.46
2022-12-05T10:32:29.150Z,974.46
2022-12-05T10:33:29.115Z,974.50
2022-12-05T10:34:29.103Z,974.51
2022-12-05T10:35:29.082Z,974.49
2022-12-05T10:36:29.070Z,974.43
2022-12-05T10:37:29.052Z,974.43
2022-12-05T10:38:29.055Z,974.42
2022-12-05T10:39:29.019Z,974.39
2022-12-05T10:40:29.009Z,974.41
2022-12-05T10:41:28.992Z,974.37
2022-12-05T10:42:28.977Z,974.39
2022-12-05T10:43:28.959Z,974.40
2022-12-05T10:44:28.948Z,974.41
2022-12-05T10:45:28.928Z,974.39
2022-12-05T10:46:28.983Z,974.35
2022-12-05T10:47:28.899Z,974.38
2022-12-05T10:48:28.914Z,974.38
2022-12-05T10:49:28.871Z,974.35
2022-12-05T10:50:28.970Z,974.36
2022-12-05T10:51:34.066Z,974.34
2022-12-05T10:52:28.830Z,974.33
2022-12-05T10:53:28.807Z,974.30
2022-12-05T10:54:28.795Z,974.33
2022-12-05T10:55:28.775Z,974.29
2022-12-05T10:56:30.596Z,974.30
2022-12-05T10:57:28.745Z,974.29
2022-12-05T10:58:28.732Z,974.31
2022-12-05T10:59:28.714Z,974.30
2022-12-05T11:00:28.708Z,974.32
2022-12-05T11:01:28.781Z,974.29
2022-12-05T11:02:28.716Z,974.28
2022-12-05T11:03:28.665Z,974.32
2022-12-05T11:04:28.661Z,974.29
2022-12-05T11:05:28.700Z,974.29
2022-12-05T11:06:28.612Z,974.30
2022-12-05T11:07:28.592Z,974.32
2022-12-05T11:08:56.095Z,974.30
2022-12-05T11:09:28.562Z,974.28
2022-12-05T11:10:28.553Z,974.29
2022-12-05T11:11:28.621Z,974.33
2022-12-05T11:12:28.521Z,974.29
2022-12-05T11:13:28.503Z,974.30
2022-12-05T11:14:28.491Z,974.27
2022-12-05T11:15:28.473Z,974.30
2022-12-05T11:16:28.532Z,974.27
2022-12-05T11:17:28.444Z,974.33
2022-12-05T11:18:28.431Z,974.32
2022-12-05T11:19:28.418Z,974.36
2022-12-05T11:20:28.422Z,974.38
2022-12-05T11:21:28.382Z,974.38
2022-12-05T11:22:28.377Z,974.40
2022-12-05T11:23:28.352Z,974.41
2022-12-05T11:24:28.342Z,974.38
2022-12-05T11:25:28.335Z,974.41
2022-12-05T11:26:28.310Z,974.41
2022-12-05T11:27:28.292Z,974.42
2022-12-05T11:28:28.279Z,974.37
2022-12-05T11:29:28.261Z,974.39
2022-12-05T11:30:28.250Z,974.36
2022-12-05T11:31:28.426Z,974.39
2022-12-05T11:32:28.219Z,974.34
2022-12-05T11:33:28.202Z,974.33
2022-12-05T11:34:28.188Z,974.29
2022-12-05T11:35:28.173Z,974.30
2022-12-05T11:36:28.180Z,974.33
2022-12-05T11:37:28.141Z,974.35
2022-12-05T11:38:28.131Z,974.37
2022-12-05T11:39:28.111Z,974.32
2022-12-05T11:40:30.136Z,974.39
2022-12-05T11:41:28.174Z,974.39
2022-12-05T11:42:28.071Z,974.38
2022-12-05T11:43:28.053Z,974.39
2022-12-05T11:44:28.040Z,974.38
2022-12-05T11:45:28.024Z,974.39
2022-12-05T11:46:28.050Z,974.41
2022-12-05T11:47:27.991Z,974.44
2022-12-05T11:48:27.980Z,974.40
2022-12-05T11:49:28.167Z,974.38
2022-12-05T11:50:27.953Z,974.38
2022-12-05T11:51:27.932Z,974.42
2022-12-05T11:52:27.946Z,974.41
2022-12-05T11:53:27.902Z,974.42
2022-12-05T11:55:02.851Z,974.39
2022-12-05T11:55:27.953Z,974.37
2022-12-05T11:56:27.863Z,974.39
2022-12-05T11:57:27.844Z,974.37
2022-12-05T11:58:27.832Z,974.40
2022-12-05T11:59:27.866Z,974.38
2022-12-05T12:00:27.801Z,974.36
2022-12-05T12:01:27.784Z,974.34
2022-12-05T12:02:27.796Z,974.33
2022-12-05T12:03:32.899Z,974.29
2022-12-05T12:04:27.744Z,974.26
2022-12-05T12:05:27.723Z,974.25
2022-12-05T12:06:27.714Z,974.23
2022-12-05T12:07:27.699Z,974.24
2022-12-05T12:08:27.717Z,974.19
2022-12-05T12:09:27.665Z,974.21
2022-12-05T12:10:27.753Z,974.25
2022-12-05T12:11:27.633Z,974.24
2022-12-05T12:12:27.624Z,974.20
2022-12-05T12:13:27.606Z,974.22
2022-12-05T12:14:27.594Z,974.16
2022-12-05T12:15:27.577Z,974.18
2022-12-05T12:16:27.615Z,974.15
2022-12-05T12:17:27.546Z,974.17
2022-12-05T12:18:27.534Z,974.15
2022-12-05T12:19:27.517Z,974.18
2022-12-05T12:20:27.504Z,974.14
2022-12-05T12:21:27.487Z,974.12
2022-12-05T12:22:27.493Z,974.13
2022-12-05T12:23:27.456Z,974.15
2022-12-05T12:24:27.471Z,974.09
2022-12-05T12:25:27.478Z,974.14
2022-12-05T12:26:27.417Z,974.11
2022-12-05T12:27:27.399Z,974.10
2022-12-05T12:28:27.387Z,974.05